sensor_id;sensor_type;location;lat;lon;timestamp;temperature;humidity
37528;DHT22;23372;52.050;4.810;2022-11-03T00:01:32;11.30;99.90
37528;DHT22;23372;52.050;4.810;2022-11-03T00:03:58;11.30;99.90
37528;DHT22;23372;52.050;4.810;2022-11-03T00:06:23;11.30;99.90
37528;DHT22;23372;52.050;4.810;2022-11-03T00:08:49;11.20;99.90
37528;DHT22;23372;52.050;4.810;2022-11-03T00:11:14;11.20;99.90
37528;DHT22;23372;52.050;4.810;2022-11-03T00:13:42;11.30;99.90
37528;DHT22;23372;52.050;4.810;2022-11-03T00:16:11;11.30;99.90
37528;DHT22;23372;52.050;4.810;2022-11-03T00:18:37;11.30;99.90
37528;DHT22;23372;52.050;4.810;2022-11-03T00:21:05;11.30;99.90
37528;DHT22;23372;52.050;4.810;2022-11-03T00:23:36;11.30;99.90
37528;DHT22;23372;52.050;4.810;2022-11-03T00:26:04;11.30;99.90
37528;DHT22;23372;52.050;4.810;2022-11-03T00:28:31;11.30;99.90
37528;DHT22;23372;52.050;4.810;2022-11-03T00:30:57;11.30;99.90
37528;DHT22;23372;52.050;4.810;2022-11-03T00:33:23;11.40;99.90
37528;DHT22;23372;52.050;4.810;2022-11-03T00:35:59;11.40;99.90
37528;DHT22;23372;52.050;4.810;2022-11-03T00:38:26;11.40;99.90
37528;DHT22;23372;52.050;4.810;2022-11-03T00:40:53;11.40;99.90
37528;DHT22;23372;52.050;4.810;2022-11-03T00:43:20;11.40;99.90
37528;DHT22;23372;52.050;4.810;2022-11-03T00:45:45;11.30;99.90
37528;DHT22;23372;52.050;4.810;2022-11-03T00:48:10;11.30;99.90
37528;DHT22;23372;52.050;4.810;2022-11-03T00:53:28;11.40;99.90
37528;DHT22;23372;52.050;4.810;2022-11-03T00:55:54;11.40;99.90
37528;DHT22;23372;52.050;4.810;2022-11-03T00:58:19;11.40;99.90
37528;DHT22;23372;52.050;4.810;2022-11-03T01:00:45;11.40;99.90
37528;DHT22;23372;52.050;4.810;2022-11-03T01:03:10;11.40;99.90
37528;DHT22;23372;52.050;4.810;2022-11-03T01:05:43;11.40;99.90
37528;DHT22;23372;52.050;4.810;2022-11-03T01:08:32;11.40;99.90
37528;DHT22;23372;52.050;4.810;2022-11-03T01:11:09;11.40;99.90
37528;DHT22;23372;52.050;4.810;2022-11-03T01:13:54;11.40;99.90
37528;DHT22;23372;52.050;4.810;2022-11-03T01:16:19;11.40;99.90
37528;DHT22;23372;52.050;4.810;2022-11-03T01:18:45;11.40;99.90
37528;DHT22;23372;52.050;4.810;2022-11-03T01:21:11;11.40;99.90
37528;DHT22;23372;52.050;4.810;2022-11-03T01:23:36;11.40;99.90
37528;DHT22;23372;52.050;4.810;2022-11-03T01:26:06;11.40;99.90
37528;DHT22;23372;52.050;4.810;2022-11-03T01:28:36;11.30;99.90
37528;DHT22;23372;52.050;4.810;2022-11-03T01:31:22;11.30;99.90
37528;DHT22;23372;52.050;4.810;2022-11-03T01:33:50;11.30;99.90
37528;DHT22;23372;52.050;4.810;2022-11-03T01:36:17;11.20;99.90
37528;DHT22;23372;52.050;4.810;2022-11-03T01:38:43;11.10;99.90
37528;DHT22;23372;52.050;4.810;2022-11-03T01:41:14;11.00;99.90
37528;DHT22;23372;52.050;4.810;2022-11-03T01:43:41;10.90;99.90
37528;DHT22;23372;52.050;4.810;2022-11-03T01:46:23;10.80;99.90
37528;DHT22;23372;52.050;4.810;2022-11-03T01:49:06;10.70;99.90
37528;DHT22;23372;52.050;4.810;2022-11-03T01:51:35;10.60;99.90
37528;DHT22;23372;52.050;4.810;2022-11-03T01:54:05;10.50;99.90
37528;DHT22;23372;52.050;4.810;2022-11-03T01:56:34;10.60;99.90
37528;DHT22;23372;52.050;4.810;2022-11-03T01:59:00;10.50;99.90
37528;DHT22;23372;52.050;4.810;2022-11-03T02:01:27;10.50;99.90
37528;DHT22;23372;52.050;4.810;2022-11-03T02:03:58;10.40;99.90
37528;DHT22;23372;52.050;4.810;2022-11-03T02:06:27;10.40;99.90
37528;DHT22;23372;52.050;4.810;2022-11-03T02:09:05;10.40;99.90
37528;DHT22;23372;52.050;4.810;2022-11-03T02:11:31;10.40;99.90
37528;DHT22;23372;52.050;4.810;2022-11-03T02:14:16;10.30;99.90
37528;DHT22;23372;52.050;4.810;2022-11-03T02:16:48;10.30;99.90
37528;DHT22;23372;52.050;4.810;2022-11-03T02:19:35;10.30;99.90
37528;DHT22;23372;52.050;4.810;2022-11-03T02:27:39;10.30;99.90
37528;DHT22;23372;52.050;4.810;2022-11-03T02:30:05;10.40;99.90
37528;DHT22;23372;52.050;4.810;2022-11-03T02:33:28;10.40;99.90
37528;DHT22;23372;52.050;4.810;2022-11-03T02:35:53;10.40;99.90
37528;DHT22;23372;52.050;4.810;2022-11-03T02:38:23;10.40;99.90
37528;DHT22;23372;52.050;4.810;2022-11-03T02:40:54;10.40;99.90
37528;DHT22;23372;52.050;4.810;2022-11-03T02:43:23;10.50;99.90
37528;DHT22;23372;52.050;4.810;2022-11-03T02:45:50;10.60;99.90
37528;DHT22;23372;52.050;4.810;2022-11-03T02:48:17;10.70;99.90
37528;DHT22;23372;52.050;4.810;2022-11-03T02:50:43;10.70;99.90
37528;DHT22;23372;52.050;4.810;2022-11-03T02:53:13;10.70;99.90
37528;DHT22;23372;52.050;4.810;2022-11-03T02:55:58;10.70;99.90
37528;DHT22;23372;52.050;4.810;2022-11-03T02:58:41;10.70;99.90
37528;DHT22;23372;52.050;4.810;2022-11-03T03:01:16;10.70;99.90
37528;DHT22;23372;52.050;4.810;2022-11-03T03:03:58;10.70;99.90
37528;DHT22;23372;52.050;4.810;2022-11-03T03:06:29;10.80;99.90
37528;DHT22;23372;52.050;4.810;2022-11-03T03:09:00;10.80;99.90
37528;DHT22;23372;52.050;4.810;2022-11-03T03:11:28;10.90;99.90
37528;DHT22;23372;52.050;4.810;2022-11-03T03:14:15;10.90;99.90
37528;DHT22;23372;52.050;4.810;2022-11-03T03:17:01;11.00;99.90
37528;DHT22;23372;52.050;4.810;2022-11-03T03:25:05;11.10;99.90
37528;DHT22;23372;52.050;4.810;2022-11-03T03:27:33;11.10;99.90
37528;DHT22;23372;52.050;4.810;2022-11-03T03:30:05;11.10;99.90
37528;DHT22;23372;52.050;4.810;2022-11-03T03:32:36;11.10;99.90
37528;DHT22;23372;52.050;4.810;2022-11-03T03:35:04;11.10;99.90
37528;DHT22;23372;52.050;4.810;2022-11-03T03:37:36;11.10;99.90
37528;DHT22;23372;52.050;4.810;2022-11-03T03:40:07;11.10;99.90
37528;DHT22;23372;52.050;4.810;2022-11-03T03:42:35;11.20;99.90
37528;DHT22;23372;52.050;4.810;2022-11-03T03:45:02;11.20;99.90
37528;DHT22;23372;52.050;4.810;2022-11-03T03:47:30;11.30;99.90
37528;DHT22;23372;52.050;4.810;2022-11-03T03:49:56;11.30;99.90
37528;DHT22;23372;52.050;4.810;2022-11-03T03:52:23;11.30;99.90
37528;DHT22;23372;52.050;4.810;2022-11-03T03:54:49;11.30;99.90
37528;DHT22;23372;52.050;4.810;2022-11-03T03:57:16;11.30;99.90
37528;DHT22;23372;52.050;4.810;2022-11-03T03:59:43;11.40;99.90
37528;DHT22;23372;52.050;4.810;2022-11-03T04:02:09;11.30;99.90
37528;DHT22;23372;52.050;4.810;2022-11-03T04:04:35;11.30;99.90
37528;DHT22;23372;52.050;4.810;2022-11-03T04:07:01;11.30;99.90
37528;DHT22;23372;52.050;4.810;2022-11-03T04:09:45;11.30;99.90
37528;DHT22;23372;52.050;4.810;2022-11-03T04:12:10;11.30;99.90
37528;DHT22;23372;52.050;4.810;2022-11-03T04:14:54;11.30;99.90
37528;DHT22;23372;52.050;4.810;2022-11-03T04:17:43;11.40;99.90
37528;DHT22;23372;52.050;4.810;2022-11-03T04:20:28;11.30;99.90
37528;DHT22;23372;52.050;4.810;2022-11-03T04:23:12;11.30;99.90
37528;DHT22;23372;52.050;4.810;2022-11-03T04:25:38;11.40;99.90
37528;DHT22;23372;52.050;4.810;2022-11-03T04:28:11;11.40;99.90
37528;DHT22;23372;52.050;4.810;2022-11-03T04:30:37;11.40;99.90
37528;DHT22;23372;52.050;4.810;2022-11-03T04:33:09;11.40;99.90
37528;DHT22;23372;52.050;4.810;2022-11-03T04:35:35;11.30;99.90
37528;DHT22;23372;52.050;4.810;2022-11-03T04:38:03;11.30;99.90
37528;DHT22;23372;52.050;4.810;2022-11-03T04:40:33;11.40;99.90
37528;DHT22;23372;52.050;4.810;2022-11-03T04:42:59;11.40;99.90
37528;DHT22;23372;52.050;4.810;2022-11-03T04:45:30;11.40;99.90
37528;DHT22;23372;52.050;4.810;2022-11-03T04:47:58;11.40;99.90
37528;DHT22;23372;52.050;4.810;2022-11-03T04:50:24;11.40;99.90
37528;DHT22;23372;52.050;4.810;2022-11-03T04:52:54;11.40;99.90
37528;DHT22;23372;52.050;4.810;2022-11-03T04:55:20;11.50;99.90
37528;DHT22;23372;52.050;4.810;2022-11-03T04:57:46;11.40;99.90
37528;DHT22;23372;52.050;4.810;2022-11-03T05:00:16;11.50;99.90
37528;DHT22;23372;52.050;4.810;2022-11-03T05:02:46;11.50;99.90
37528;DHT22;23372;52.050;4.810;2022-11-03T05:05:18;11.60;99.90
37528;DHT22;23372;52.050;4.810;2022-11-03T05:07:46;11.60;99.90
37528;DHT22;23372;52.050;4.810;2022-11-03T05:10:16;11.60;99.90
37528;DHT22;23372;52.050;4.810;2022-11-03T05:12:42;11.60;99.90
37528;DHT22;23372;52.050;4.810;2022-11-03T05:17:47;11.60;99.90
37528;DHT22;23372;52.050;4.810;2022-11-03T05:20:28;11.60;99.90
37528;DHT22;23372;52.050;4.810;2022-11-03T05:22:54;11.60;99.90
37528;DHT22;23372;52.050;4.810;2022-11-03T05:25:42;11.70;99.90
37528;DHT22;23372;52.050;4.810;2022-11-03T05:30:48;11.60;99.90
37528;DHT22;23372;52.050;4.810;2022-11-03T05:33:21;11.60;99.90
37528;DHT22;23372;52.050;4.810;2022-11-03T05:35:49;11.60;99.90
37528;DHT22;23372;52.050;4.810;2022-11-03T05:38:18;11.70;99.90
37528;DHT22;23372;52.050;4.810;2022-11-03T05:40:45;11.70;99.90
37528;DHT22;23372;52.050;4.810;2022-11-03T05:43:13;11.70;99.90
37528;DHT22;23372;52.050;4.810;2022-11-03T05:45:39;11.80;99.90
37528;DHT22;23372;52.050;4.810;2022-11-03T05:48:34;11.70;99.90
37528;DHT22;23372;52.050;4.810;2022-11-03T05:50:59;11.70;99.90
37528;DHT22;23372;52.050;4.810;2022-11-03T05:53:31;11.70;99.90
37528;DHT22;23372;52.050;4.810;2022-11-03T05:56:02;11.70;99.90
37528;DHT22;23372;52.050;4.810;2022-11-03T05:58:34;11.70;99.90
37528;DHT22;23372;52.050;4.810;2022-11-03T06:01:04;11.70;99.90
37528;DHT22;23372;52.050;4.810;2022-11-03T06:03:35;11.70;99.90
37528;DHT22;23372;52.050;4.810;2022-11-03T06:06:01;11.70;99.90
37528;DHT22;23372;52.050;4.810;2022-11-03T06:08:32;11.70;99.90
37528;DHT22;23372;52.050;4.810;2022-11-03T06:10:59;11.70;99.90
37528;DHT22;23372;52.050;4.810;2022-11-03T06:13:29;11.70;99.90
37528;DHT22;23372;52.050;4.810;2022-11-03T06:16:02;11.70;99.90
37528;DHT22;23372;52.050;4.810;2022-11-03T06:18:35;11.60;99.90
37528;DHT22;23372;52.050;4.810;2022-11-03T06:21:07;11.60;99.90
37528;DHT22;23372;52.050;4.810;2022-11-03T06:23:35;11.60;99.90
37528;DHT22;23372;52.050;4.810;2022-11-03T06:26:02;11.70;99.90
37528;DHT22;23372;52.050;4.810;2022-11-03T06:28:34;11.70;99.90
37528;DHT22;23372;52.050;4.810;2022-11-03T06:31:03;11.70;99.90
37528;DHT22;23372;52.050;4.810;2022-11-03T06:33:33;11.70;99.90
37528;DHT22;23372;52.050;4.810;2022-11-03T06:36:05;11.80;99.90
37528;DHT22;23372;52.050;4.810;2022-11-03T06:38:35;11.70;99.90
37528;DHT22;23372;52.050;4.810;2022-11-03T06:41:00;11.80;99.90
37528;DHT22;23372;52.050;4.810;2022-11-03T06:43:34;11.80;99.90
37528;DHT22;23372;52.050;4.810;2022-11-03T06:46:29;11.80;99.90
37528;DHT22;23372;52.050;4.810;2022-11-03T06:48:58;11.90;99.90
37528;DHT22;23372;52.050;4.810;2022-11-03T06:51:26;11.90;99.90
37528;DHT22;23372;52.050;4.810;2022-11-03T06:53:53;11.90;99.90
37528;DHT22;23372;52.050;4.810;2022-11-03T06:56:21;11.90;99.90
37528;DHT22;23372;52.050;4.810;2022-11-03T06:58:49;11.90;99.90
37528;DHT22;23372;52.050;4.810;2022-11-03T07:01:23;11.90;99.90
37528;DHT22;23372;52.050;4.810;2022-11-03T07:03:51;11.90;99.90
37528;DHT22;23372;52.050;4.810;2022-11-03T07:06:21;12.00;99.90
37528;DHT22;23372;52.050;4.810;2022-11-03T07:08:55;12.00;99.90
37528;DHT22;23372;52.050;4.810;2022-11-03T07:11:23;12.00;99.90
37528;DHT22;23372;52.050;4.810;2022-11-03T07:13:51;12.00;99.90
37528;DHT22;23372;52.050;4.810;2022-11-03T07:16:31;12.00;99.90
37528;DHT22;23372;52.050;4.810;2022-11-03T07:19:05;12.00;99.90
37528;DHT22;23372;52.050;4.810;2022-11-03T07:21:43;12.00;99.90
37528;DHT22;23372;52.050;4.810;2022-11-03T07:24:21;12.00;99.90
37528;DHT22;23372;52.050;4.810;2022-11-03T07:26:52;12.10;99.90
37528;DHT22;23372;52.050;4.810;2022-11-03T07:29:21;12.10;99.90
37528;DHT22;23372;52.050;4.810;2022-11-03T07:31:49;12.10;99.90
37528;DHT22;23372;52.050;4.810;2022-11-03T07:34:21;12.10;99.90
37528;DHT22;23372;52.050;4.810;2022-11-03T07:36:47;12.10;99.90
37528;DHT22;23372;52.050;4.810;2022-11-03T07:39:17;12.10;99.90
37528;DHT22;23372;52.050;4.810;2022-11-03T07:41:43;12.10;99.90
37528;DHT22;23372;52.050;4.810;2022-11-03T07:44:15;12.10;99.90
37528;DHT22;23372;52.050;4.810;2022-11-03T07:46:42;12.10;99.90
37528;DHT22;23372;52.050;4.810;2022-11-03T07:49:25;12.10;99.90
37528;DHT22;23372;52.050;4.810;2022-11-03T07:51:52;12.00;99.90
37528;DHT22;23372;52.050;4.810;2022-11-03T07:54:21;12.00;99.90
37528;DHT22;23372;52.050;4.810;2022-11-03T07:56:57;12.00;99.90
37528;DHT22;23372;52.050;4.810;2022-11-03T07:59:35;12.00;99.90
37528;DHT22;23372;52.050;4.810;2022-11-03T08:04:58;12.00;99.90
37528;DHT22;23372;52.050;4.810;2022-11-03T08:07:24;12.00;99.90
37528;DHT22;23372;52.050;4.810;2022-11-03T08:09:50;12.10;99.90
37528;DHT22;23372;52.050;4.810;2022-11-03T08:12:16;12.10;99.90
37528;DHT22;23372;52.050;4.810;2022-11-03T08:14:41;12.20;99.90
37528;DHT22;23372;52.050;4.810;2022-11-03T08:17:07;12.20;99.90
37528;DHT22;23372;52.050;4.810;2022-11-03T08:19:32;12.20;99.90
37528;DHT22;23372;52.050;4.810;2022-11-03T08:21:58;12.30;99.90
37528;DHT22;23372;52.050;4.810;2022-11-03T08:24:23;12.30;99.90
37528;DHT22;23372;52.050;4.810;2022-11-03T08:26:49;12.40;99.90
37528;DHT22;23372;52.050;4.810;2022-11-03T08:29:14;12.50;99.90
37528;DHT22;23372;52.050;4.810;2022-11-03T08:31:42;12.50;99.90
37528;DHT22;23372;52.050;4.810;2022-11-03T08:34:07;12.50;99.90
37528;DHT22;23372;52.050;4.810;2022-11-03T08:36:33;12.50;99.90
37528;DHT22;23372;52.050;4.810;2022-11-03T08:38:58;12.50;99.90
37528;DHT22;23372;52.050;4.810;2022-11-03T08:41:24;12.50;99.90
37528;DHT22;23372;52.050;4.810;2022-11-03T08:43:49;12.60;99.90
37528;DHT22;23372;52.050;4.810;2022-11-03T08:46:15;12.60;99.90
37528;DHT22;23372;52.050;4.810;2022-11-03T08:48:40;12.70;99.90
37528;DHT22;23372;52.050;4.810;2022-11-03T08:51:06;12.70;99.90
37528;DHT22;23372;52.050;4.810;2022-11-03T08:53:34;12.70;99.90
37528;DHT22;23372;52.050;4.810;2022-11-03T08:56:00;12.80;99.90
37528;DHT22;23372;52.050;4.810;2022-11-03T08:58:25;12.80;99.90
37528;DHT22;23372;52.050;4.810;2022-11-03T09:00:51;12.80;99.90
37528;DHT22;23372;52.050;4.810;2022-11-03T09:03:16;12.80;99.90
37528;DHT22;23372;52.050;4.810;2022-11-03T09:05:42;12.80;99.90
37528;DHT22;23372;52.050;4.810;2022-11-03T09:08:07;12.80;99.90
37528;DHT22;23372;52.050;4.810;2022-11-03T09:10:33;12.80;99.90
37528;DHT22;23372;52.050;4.810;2022-11-03T09:12:59;12.80;99.90
37528;DHT22;23372;52.050;4.810;2022-11-03T09:15:25;12.70;99.90
37528;DHT22;23372;52.050;4.810;2022-11-03T09:17:50;12.70;99.90
37528;DHT22;23372;52.050;4.810;2022-11-03T09:20:16;12.80;99.90
37528;DHT22;23372;52.050;4.810;2022-11-03T09:22:42;12.80;99.90
37528;DHT22;23372;52.050;4.810;2022-11-03T09:25:08;12.80;99.90
37528;DHT22;23372;52.050;4.810;2022-11-03T09:27:33;12.80;99.90
37528;DHT22;23372;52.050;4.810;2022-11-03T09:29:59;12.80;99.90
37528;DHT22;23372;52.050;4.810;2022-11-03T09:32:24;12.80;99.90
37528;DHT22;23372;52.050;4.810;2022-11-03T09:34:50;12.90;99.90
37528;DHT22;23372;52.050;4.810;2022-11-03T09:37:15;12.90;99.90
37528;DHT22;23372;52.050;4.810;2022-11-03T09:39:42;12.90;99.90
37528;DHT22;23372;52.050;4.810;2022-11-03T09:42:09;13.00;99.90
37528;DHT22;23372;52.050;4.810;2022-11-03T09:44:35;12.90;99.90
37528;DHT22;23372;52.050;4.810;2022-11-03T09:47:02;13.00;99.90
37528;DHT22;23372;52.050;4.810;2022-11-03T09:49:31;13.00;99.90
37528;DHT22;23372;52.050;4.810;2022-11-03T09:51:58;13.00;99.90
37528;DHT22;23372;52.050;4.810;2022-11-03T09:54:26;13.10;99.90
37528;DHT22;23372;52.050;4.810;2022-11-03T09:56:52;13.10;99.90
37528;DHT22;23372;52.050;4.810;2022-11-03T09:59:20;13.10;99.90
37528;DHT22;23372;52.050;4.810;2022-11-03T10:01:48;13.10;99.90
37528;DHT22;23372;52.050;4.810;2022-11-03T10:04:16;13.10;99.90
37528;DHT22;23372;52.050;4.810;2022-11-03T10:06:42;13.10;99.90
37528;DHT22;23372;52.050;4.810;2022-11-03T10:09:13;13.10;99.90
37528;DHT22;23372;52.050;4.810;2022-11-03T10:11:39;13.10;99.90
37528;DHT22;23372;52.050;4.810;2022-11-03T10:14:09;13.20;99.90
37528;DHT22;23372;52.050;4.810;2022-11-03T10:16:37;13.20;99.90
37528;DHT22;23372;52.050;4.810;2022-11-03T10:19:03;13.20;99.90
37528;DHT22;23372;52.050;4.810;2022-11-03T10:21:30;13.20;99.90
37528;DHT22;23372;52.050;4.810;2022-11-03T10:23:58;13.20;99.90
37528;DHT22;23372;52.050;4.810;2022-11-03T10:26:23;13.30;99.90
37528;DHT22;23372;52.050;4.810;2022-11-03T10:29:15;13.30;99.90
37528;DHT22;23372;52.050;4.810;2022-11-03T10:31:44;13.30;99.90
37528;DHT22;23372;52.050;4.810;2022-11-03T10:34:36;13.40;99.90
37528;DHT22;23372;52.050;4.810;2022-11-03T10:37:22;13.40;99.90
37528;DHT22;23372;52.050;4.810;2022-11-03T10:39:50;13.50;99.90
37528;DHT22;23372;52.050;4.810;2022-11-03T10:42:23;13.50;99.90
37528;DHT22;23372;52.050;4.810;2022-11-03T10:44:53;13.50;99.90
37528;DHT22;23372;52.050;4.810;2022-11-03T10:47:31;13.50;99.90
37528;DHT22;23372;52.050;4.810;2022-11-03T10:49:58;13.50;99.90
37528;DHT22;23372;52.050;4.810;2022-11-03T10:52:26;13.50;99.90
37528;DHT22;23372;52.050;4.810;2022-11-03T10:54:53;13.60;99.90
37528;DHT22;23372;52.050;4.810;2022-11-03T10:57:21;13.60;99.90
37528;DHT22;23372;52.050;4.810;2022-11-03T10:59:49;13.60;99.90
37528;DHT22;23372;52.050;4.810;2022-11-03T11:02:21;13.70;99.90
37528;DHT22;23372;52.050;4.810;2022-11-03T11:04:48;13.70;99.90
37528;DHT22;23372;52.050;4.810;2022-11-03T11:07:20;13.90;99.90
37528;DHT22;23372;52.050;4.810;2022-11-03T11:09:46;13.90;99.90
37528;DHT22;23372;52.050;4.810;2022-11-03T11:12:21;14.00;99.90
37528;DHT22;23372;52.050;4.810;2022-11-03T11:14:57;14.00;99.90
37528;DHT22;23372;52.050;4.810;2022-11-03T11:17:43;14.00;99.90
37528;DHT22;23372;52.050;4.810;2022-11-03T11:22:47;13.90;99.90
37528;DHT22;23372;52.050;4.810;2022-11-03T11:25:12;13.90;99.90
37528;DHT22;23372;52.050;4.810;2022-11-03T11:30:06;13.90;99.90
37528;DHT22;23372;52.050;4.810;2022-11-03T11:35:08;13.80;99.90
37528;DHT22;23372;52.050;4.810;2022-11-03T11:37:35;13.90;99.90
37528;DHT22;23372;52.050;4.810;2022-11-03T11:40:02;13.90;99.90
37528;DHT22;23372;52.050;4.810;2022-11-03T11:42:28;14.00;99.90
37528;DHT22;23372;52.050;4.810;2022-11-03T11:44:58;13.90;99.90
37528;DHT22;23372;52.050;4.810;2022-11-03T11:52:47;14.00;99.90
37528;DHT22;23372;52.050;4.810;2022-11-03T11:55:30;14.00;99.90
37528;DHT22;23372;52.050;4.810;2022-11-03T11:57:58;14.10;99.90
37528;DHT22;23372;52.050;4.810;2022-11-03T12:00:28;14.10;99.90
37528;DHT22;23372;52.050;4.810;2022-11-03T12:02:54;14.10;99.90
37528;DHT22;23372;52.050;4.810;2022-11-03T12:05:25;14.10;99.90
37528;DHT22;23372;52.050;4.810;2022-11-03T12:07:53;14.10;99.90
37528;DHT22;23372;52.050;4.810;2022-11-03T12:10:24;14.10;99.90
37528;DHT22;23372;52.050;4.810;2022-11-03T12:12:54;14.10;99.90
37528;DHT22;23372;52.050;4.810;2022-11-03T12:15:49;14.10;99.90
37528;DHT22;23372;52.050;4.810;2022-11-03T12:20:57;14.20;99.90
37528;DHT22;23372;52.050;4.810;2022-11-03T12:23:43;14.10;99.90
37528;DHT22;23372;52.050;4.810;2022-11-03T12:26:40;14.10;99.90
37528;DHT22;23372;52.050;4.810;2022-11-03T12:29:06;14.20;99.90
37528;DHT22;23372;52.050;4.810;2022-11-03T12:31:32;14.10;99.90
37528;DHT22;23372;52.050;4.810;2022-11-03T12:33:57;14.10;99.90
37528;DHT22;23372;52.050;4.810;2022-11-03T12:36:23;14.20;99.90
37528;DHT22;23372;52.050;4.810;2022-11-03T12:38:48;14.30;99.90
37528;DHT22;23372;52.050;4.810;2022-11-03T12:41:14;14.50;99.90
37528;DHT22;23372;52.050;4.810;2022-11-03T12:43:52;14.70;99.90
37528;DHT22;23372;52.050;4.810;2022-11-03T12:46:18;14.90;99.90
37528;DHT22;23372;52.050;4.810;2022-11-03T12:48:45;15.00;99.90
37528;DHT22;23372;52.050;4.810;2022-11-03T12:51:16;15.10;99.90
37528;DHT22;23372;52.050;4.810;2022-11-03T12:53:43;15.20;99.90
37528;DHT22;23372;52.050;4.810;2022-11-03T12:56:09;15.20;99.90
37528;DHT22;23372;52.050;4.810;2022-11-03T12:58:35;15.30;99.90
37528;DHT22;23372;52.050;4.810;2022-11-03T13:01:01;15.40;99.90
37528;DHT22;23372;52.050;4.810;2022-11-03T13:03:27;15.40;99.90
37528;DHT22;23372;52.050;4.810;2022-11-03T13:05:53;15.30;99.90
37528;DHT22;23372;52.050;4.810;2022-11-03T13:08:18;15.20;99.90
37528;DHT22;23372;52.050;4.810;2022-11-03T13:10:44;15.20;99.90
37528;DHT22;23372;52.050;4.810;2022-11-03T13:13:09;15.30;99.90
37528;DHT22;23372;52.050;4.810;2022-11-03T13:15:35;15.20;99.90
37528;DHT22;23372;52.050;4.810;2022-11-03T13:18:02;15.20;99.90
37528;DHT22;23372;52.050;4.810;2022-11-03T13:20:27;15.10;99.90
37528;DHT22;23372;52.050;4.810;2022-11-03T13:22:53;15.00;99.90
37528;DHT22;23372;52.050;4.810;2022-11-03T13:25:18;14.90;99.90
37528;DHT22;23372;52.050;4.810;2022-11-03T13:27:44;14.80;99.90
37528;DHT22;23372;52.050;4.810;2022-11-03T13:30:10;14.80;99.90
37528;DHT22;23372;52.050;4.810;2022-11-03T13:32:36;14.80;99.90
37528;DHT22;23372;52.050;4.810;2022-11-03T13:35:03;14.70;99.90
37528;DHT22;23372;52.050;4.810;2022-11-03T13:37:28;14.70;99.90
37528;DHT22;23372;52.050;4.810;2022-11-03T13:39:54;14.60;99.90
37528;DHT22;23372;52.050;4.810;2022-11-03T13:42:19;14.60;99.90
37528;DHT22;23372;52.050;4.810;2022-11-03T13:44:45;14.50;99.90
37528;DHT22;23372;52.050;4.810;2022-11-03T13:47:10;14.60;99.90
37528;DHT22;23372;52.050;4.810;2022-11-03T13:49:36;14.60;99.90
37528;DHT22;23372;52.050;4.810;2022-11-03T13:52:02;14.60;99.90
37528;DHT22;23372;52.050;4.810;2022-11-03T13:54:27;14.60;99.90
37528;DHT22;23372;52.050;4.810;2022-11-03T13:56:54;14.60;99.90
37528;DHT22;23372;52.050;4.810;2022-11-03T13:59:20;14.60;99.90
37528;DHT22;23372;52.050;4.810;2022-11-03T14:01:46;14.60;99.90
37528;DHT22;23372;52.050;4.810;2022-11-03T14:04:11;14.50;99.90
37528;DHT22;23372;52.050;4.810;2022-11-03T14:06:37;14.50;99.90
37528;DHT22;23372;52.050;4.810;2022-11-03T14:09:03;14.50;99.90
37528;DHT22;23372;52.050;4.810;2022-11-03T14:11:28;14.50;99.90
37528;DHT22;23372;52.050;4.810;2022-11-03T14:14:12;14.40;99.90
37528;DHT22;23372;52.050;4.810;2022-11-03T14:16:38;14.30;99.90
37528;DHT22;23372;52.050;4.810;2022-11-03T14:19:03;14.30;99.90
37528;DHT22;23372;52.050;4.810;2022-11-03T14:21:30;14.20;99.90
37528;DHT22;23372;52.050;4.810;2022-11-03T14:23:55;14.20;99.90
37528;DHT22;23372;52.050;4.810;2022-11-03T14:26:21;14.20;99.90
37528;DHT22;23372;52.050;4.810;2022-11-03T14:28:46;14.20;99.90
37528;DHT22;23372;52.050;4.810;2022-11-03T14:31:12;14.20;99.90
37528;DHT22;23372;52.050;4.810;2022-11-03T14:33:37;14.20;99.90
37528;DHT22;23372;52.050;4.810;2022-11-03T14:36:03;14.20;99.90
37528;DHT22;23372;52.050;4.810;2022-11-03T14:38:28;14.20;99.90
37528;DHT22;23372;52.050;4.810;2022-11-03T14:40:54;14.20;99.90
37528;DHT22;23372;52.050;4.810;2022-11-03T14:43:38;14.20;99.90
37528;DHT22;23372;52.050;4.810;2022-11-03T14:46:03;14.10;99.90
37528;DHT22;23372;52.050;4.810;2022-11-03T14:48:29;14.00;99.90
37528;DHT22;23372;52.050;4.810;2022-11-03T14:50:54;14.00;99.90
37528;DHT22;23372;52.050;4.810;2022-11-03T14:53:20;13.90;99.90
37528;DHT22;23372;52.050;4.810;2022-11-03T14:55:45;13.90;99.90
37528;DHT22;23372;52.050;4.810;2022-11-03T14:58:11;13.90;99.90
37528;DHT22;23372;52.050;4.810;2022-11-03T15:00:36;13.90;99.90
37528;DHT22;23372;52.050;4.810;2022-11-03T15:03:02;13.90;99.90
37528;DHT22;23372;52.050;4.810;2022-11-03T15:05:28;13.80;99.90
37528;DHT22;23372;52.050;4.810;2022-11-03T15:08:10;13.80;99.90
37528;DHT22;23372;52.050;4.810;2022-11-03T15:10:35;13.80;99.90
37528;DHT22;23372;52.050;4.810;2022-11-03T15:13:01;13.60;99.90
37528;DHT22;23372;52.050;4.810;2022-11-03T15:15:26;13.50;99.90
37528;DHT22;23372;52.050;4.810;2022-11-03T15:17:52;13.40;99.90
37528;DHT22;23372;52.050;4.810;2022-11-03T15:20:17;13.30;99.90
37528;DHT22;23372;52.050;4.810;2022-11-03T15:22:42;13.40;99.90
37528;DHT22;23372;52.050;4.810;2022-11-03T15:25:08;13.30;99.90
37528;DHT22;23372;52.050;4.810;2022-11-03T15:27:33;13.30;99.90
37528;DHT22;23372;52.050;4.810;2022-11-03T15:29:59;13.30;99.90
37528;DHT22;23372;52.050;4.810;2022-11-03T15:32:25;13.20;99.90
37528;DHT22;23372;52.050;4.810;2022-11-03T15:34:51;13.20;99.90
37528;DHT22;23372;52.050;4.810;2022-11-03T15:37:16;13.10;99.90
37528;DHT22;23372;52.050;4.810;2022-11-03T15:39:42;13.20;99.90
37528;DHT22;23372;52.050;4.810;2022-11-03T15:42:07;13.20;99.90
37528;DHT22;23372;52.050;4.810;2022-11-03T15:44:33;13.20;99.90
37528;DHT22;23372;52.050;4.810;2022-11-03T15:46:58;13.20;99.90
37528;DHT22;23372;52.050;4.810;2022-11-03T15:49:23;13.10;99.90
37528;DHT22;23372;52.050;4.810;2022-11-03T15:51:49;13.10;99.90
37528;DHT22;23372;52.050;4.810;2022-11-03T15:54:14;13.10;99.90
37528;DHT22;23372;52.050;4.810;2022-11-03T15:56:40;13.00;99.90
37528;DHT22;23372;52.050;4.810;2022-11-03T15:59:05;12.90;99.90
37528;DHT22;23372;52.050;4.810;2022-11-03T16:01:32;13.00;99.90
37528;DHT22;23372;52.050;4.810;2022-11-03T16:03:59;13.00;99.90
37528;DHT22;23372;52.050;4.810;2022-11-03T16:06:25;12.90;99.90
37528;DHT22;23372;52.050;4.810;2022-11-03T16:08:50;12.90;99.90
37528;DHT22;23372;52.050;4.810;2022-11-03T16:11:16;12.90;99.90
37528;DHT22;23372;52.050;4.810;2022-11-03T16:13:41;12.80;99.90
37528;DHT22;23372;52.050;4.810;2022-11-03T16:16:07;12.80;99.90
37528;DHT22;23372;52.050;4.810;2022-11-03T16:18:33;12.80;99.90
37528;DHT22;23372;52.050;4.810;2022-11-03T16:20:59;12.70;99.90